To NAV CANADA Home Page Login to a new session Search on AWWS site Feedback and Comments Disclaimer Vers la page française équivalente Tips FAQ What's new on the site To the Forecasts and Observations / NOTAM section To "File a Flight Plan" website Publications and other links Update of the User's profile FIC Telephone Numbers My Weather Data Folder Route Weather Data Regional Weather Data Local Weather Data To the Forecasts and Observations / NOTAM section
Request Generated 04/23/2014 at 22:04:30 UTC . Weather information available at that time is displayed.

METAR/TAF

THOMPSON/MB    

METAR CYTH 232200Z 06012G19KT 15SM FEW250 04/M04 A3015 RMK CI0 SLP224=
METAR CYTH 232100Z 06013KT 15SM FEW250 03/M03 A3015 RMK CI0 SLP224=
METAR CYTH 232000Z 04014KT 15SM FEW270 03/M03 A3014 RMK CI0 SLP222=

TAF CYTH 231838Z 2319/2407 06012KT P6SM SKC
FM240200 07010KT P6SM BKN020
RMK NXT FCST BY 240100Z=
Your time UTC time
Weather data provided by Environment Canada and NAV CANADA